METAR Data
IDs: Format: Raw Decoded Include TAF

Data at: 0239 UTC 29 Nov 2020

METAR for:KDSM (Des Moines Intl, IA, US)
Text:KDSM 290154Z 21008KT 10SM FEW200 07/01 A3002 RMK AO2 SLP172 T00720006
Temperature: 7.2°C ( 45°F)
Dewpoint: 0.6°C ( 33°F) [RH = 63%]
Pressure (altimeter):30.02 inches Hg (1016.7 mb) [Sea level pressure: 1017.2 mb]
Winds:from the SSW (210 degrees) at 9 MPH (8 knots; 4.1 m/s)
Visibility:10 or more sm (16+ km)
Ceiling:at least 12,000 feet AGL
Clouds: few clouds at 20000 feet AGL